North Providence, Rhode Island
Current Conditions -  °F | °C
As of 3:35 AM on Thursday 29 Jan 2015 (Local Time) from KSFZ Reporting Station
Clear Clear  
Wind Chill: -13°   Ceiling: Unl
Heat Index: -13°   Visibility: 10mi
Dew Point: -22°   Wind: 0mph
Humidity: 48%   Direction: NA
Pressure: 30.22"   Gusts: NA
Location:  41.86°N, 71.48°W
Report Text: KSFZ 290835Z 00000KT 10SM CLR M13/M22 A3022 RMK AO1
Loading
Personal Weather Stations






























Interactive Weather Map New forecast layout! Learn more

10-Day Weather Forecast

Advertisements
Track Severe Weather on mobile